createdAt,value
2023-05-20T00:02:37.912Z,101900.08
2023-05-20T00:05:13.802Z,101903.51
2023-05-20T00:07:32.971Z,101903.23
2023-05-20T00:10:08.511Z,101904.85
2023-05-20T00:12:45.121Z,101902.48
2023-05-20T00:15:18.655Z,101905.96
2023-05-20T00:17:47.221Z,101906.67
2023-05-20T00:20:15.787Z,101902.90
2023-05-20T00:22:50.131Z,101905.17
2023-05-20T00:25:23.870Z,101903.06
2023-05-20T00:27:43.475Z,101900.98
2023-05-20T00:30:05.071Z,101901.27
2023-05-20T00:32:39.942Z,101902.58
2023-05-20T00:35:07.464Z,101899.73
2023-05-20T00:37:29.979Z,101896.52
2023-05-20T00:39:50.068Z,101891.41
2023-05-20T00:42:22.947Z,101897.43
2023-05-20T00:44:48.489Z,101894.23
2023-05-20T00:47:07.858Z,101892.15
2023-05-20T00:49:27.882Z,101890.23
2023-05-20T00:51:54.630Z,101893.59
2023-05-20T00:54:21.606Z,101893.23
2023-05-20T00:56:51.810Z,101888.83
2023-05-20T00:59:12.089Z,101887.63
2023-05-20T01:01:38.112Z,101885.02
2023-05-20T01:04:07.591Z,101885.50
2023-05-20T01:06:44.143Z,101888.64
2023-05-20T01:09:19.478Z,101891.23
2023-05-20T01:11:48.217Z,101897.03
2023-05-20T01:14:26.667Z,101898.54
2023-05-20T01:16:49.250Z,101895.80
2023-05-20T01:19:31.050Z,101901.46
2023-05-20T01:22:09.020Z,101906.80
2023-05-20T01:24:37.642Z,101907.80
2023-05-20T01:27:13.200Z,101912.13
2023-05-20T01:32:16.106Z,101913.04
2023-05-20T01:34:37.392Z,101911.13
2023-05-20T01:37:13.906Z,101907.57
2023-05-20T01:39:37.548Z,101909.91
2023-05-20T01:41:57.590Z,101905.58
2023-05-20T01:44:19.927Z,101909.78
2023-05-20T01:46:52.097Z,101916.65
2023-05-20T01:49:11.516Z,101914.27
2023-05-20T01:51:39.176Z,101915.52
2023-05-20T01:54:11.598Z,101915.89
2023-05-20T01:56:33.167Z,101917.67
2023-05-20T01:58:57.477Z,101917.90
2023-05-20T02:01:25.841Z,101920.52
2023-05-20T02:03:45.290Z,101922.98
2023-05-20T02:06:05.257Z,101922.45
2023-05-20T02:08:36.934Z,101926.09
2023-05-20T02:11:12.209Z,101928.89
2023-05-20T02:13:42.985Z,101930.85
2023-05-20T02:16:10.021Z,101934.05
2023-05-20T02:18:31.600Z,101931.52
2023-05-20T02:20:58.531Z,101936.31
2023-05-20T02:23:34.930Z,101938.38
2023-05-20T02:25:54.660Z,101941.32
2023-05-20T02:28:24.371Z,101942.16
2023-05-20T02:30:52.241Z,101944.46
2023-05-20T02:33:18.791Z,101944.70
2023-05-20T02:35:46.679Z,101947.30
2023-05-20T02:38:20.763Z,101951.64
2023-05-20T02:40:50.296Z,101961.98
2023-05-20T02:43:24.654Z,101960.72
2023-05-20T02:45:48.086Z,101967.51
2023-05-20T02:48:10.406Z,101968.30
2023-05-20T02:50:27.979Z,101970.41
2023-05-20T02:52:50.992Z,101961.47
2023-05-20T02:55:17.432Z,101961.27
2023-05-20T02:57:49.770Z,101961.59
2023-05-20T03:00:16.213Z,101965.74
2023-05-20T03:02:36.168Z,101970.48
2023-05-20T03:05:05.180Z,101968.30
2023-05-20T03:07:30.601Z,101968.90
2023-05-20T03:10:04.203Z,101970.17
2023-05-20T03:12:22.292Z,101967.53
2023-05-20T03:14:46.679Z,101965.02
2023-05-20T03:17:08.219Z,101965.84
2023-05-20T03:19:38.200Z,101971.39
2023-05-20T03:21:56.912Z,101980.65
2023-05-20T03:24:19.330Z,101985.08
2023-05-20T03:26:44.203Z,101990.50
2023-05-20T03:29:10.159Z,101988.67
2023-05-20T03:31:29.567Z,101982.77
2023-05-20T03:33:54.259Z,101977.55
2023-05-20T03:36:15.332Z,101977.62
2023-05-20T03:38:42.475Z,101979.45
2023-05-20T03:41:17.252Z,101987.95
2023-05-20T03:43:37.602Z,101990.54
2023-05-20T03:46:02.017Z,101988.33
2023-05-20T03:48:37.115Z,101997.27
2023-05-20T03:51:05.020Z,102004.64
2023-05-20T03:53:34.929Z,102001.80
2023-05-20T03:55:53.816Z,101997.63
2023-05-20T03:58:23.351Z,101995.86
2023-05-20T04:00:50.756Z,101999.29
2023-05-20T04:03:14.739Z,101998.20
2023-05-20T04:05:51.793Z,101997.55
2023-05-20T04:08:23.470Z,101999.42
2023-05-20T04:10:50.877Z,102000.02
2023-05-20T04:13:26.477Z,102002.89
2023-05-20T04:16:01.302Z,102006.23
2023-05-20T04:18:35.641Z,102009.27
2023-05-20T04:21:11.890Z,102009.45
2023-05-20T04:23:46.708Z,102015.13
2023-05-20T04:26:14.527Z,102014.14
2023-05-20T04:28:45.320Z,102018.69
2023-05-20T04:31:22.059Z,102016.62
2023-05-20T04:33:57.238Z,102013.77
2023-05-20T04:36:32.469Z,102016.04
2023-05-20T04:39:07.023Z,102017.60
2023-05-20T04:41:36.545Z,102023.12
2023-05-20T04:44:31.906Z,102031.13
2023-05-20T04:46:57.581Z,102030.86
2023-05-20T04:49:32.446Z,102041.81
2023-05-20T04:51:56.568Z,102046.00
2023-05-20T04:54:30.595Z,102047.55
2023-05-20T04:56:50.220Z,102051.73
2023-05-20T04:59:16.044Z,102050.64
2023-05-20T05:01:33.723Z,102045.86
2023-05-20T05:04:08.277Z,102049.72
2023-05-20T05:06:33.123Z,102055.50
2023-05-20T05:09:03.107Z,102055.94
2023-05-20T05:11:30.876Z,102055.50
2023-05-20T05:13:56.311Z,102056.38
2023-05-20T05:16:26.840Z,102055.61
2023-05-20T05:19:01.739Z,102057.55
2023-05-20T05:21:34.571Z,102059.56
2023-05-20T05:24:11.012Z,102063.34
2023-05-20T05:26:44.882Z,102063.06
2023-05-20T05:29:21.347Z,102064.59
2023-05-20T05:31:50.661Z,102063.29
2023-05-20T05:34:11.228Z,102058.23
2023-05-20T05:36:32.597Z,102054.33
2023-05-20T05:39:08.239Z,102057.35
2023-05-20T05:41:29.848Z,102057.63
2023-05-20T05:43:56.373Z,102058.63
2023-05-20T05:46:36.887Z,102054.04
2023-05-20T05:49:12.754Z,102050.66
2023-05-20T05:51:47.938Z,102054.17
2023-05-20T05:54:22.466Z,102060.99
2023-05-20T05:56:49.108Z,102057.05
2023-05-20T05:59:23.899Z,102058.28
2023-05-20T06:02:15.016Z,102060.23
2023-05-20T06:04:47.984Z,102064.81
2023-05-20T06:07:26.617Z,102063.60
2023-05-20T06:09:55.076Z,102064.45
2023-05-20T06:12:29.913Z,102067.85
2023-05-20T06:15:04.849Z,102072.70
2023-05-20T06:17:39.166Z,102073.36
2023-05-20T06:20:08.190Z,102072.59
2023-05-20T06:22:37.214Z,102070.71
2023-05-20T06:25:05.521Z,102070.05
2023-05-20T06:27:34.432Z,102073.75
2023-05-20T06:30:09.709Z,102073.89
2023-05-20T06:32:44.436Z,102080.08
2023-05-20T06:35:19.068Z,102081.86
2023-05-20T06:37:53.936Z,102076.34
2023-05-20T06:40:28.412Z,102076.27
2023-05-20T06:43:04.305Z,102074.23
2023-05-20T06:45:54.378Z,102070.15
2023-05-20T06:48:35.544Z,102073.33
2023-05-20T06:51:09.941Z,102076.69
2023-05-20T06:53:56.058Z,102072.95
2023-05-20T06:56:30.836Z,102068.00
2023-05-20T06:59:09.272Z,102068.54
2023-05-20T07:01:38.474Z,102071.54
2023-05-20T07:04:13.913Z,102067.91
2023-05-20T07:06:35.979Z,102059.20
2023-05-20T07:09:02.508Z,102054.20
2023-05-20T07:11:29.410Z,102058.52
2023-05-20T07:13:52.297Z,102060.10
2023-05-20T07:16:24.328Z,102059.06
2023-05-20T07:18:48.433Z,102066.39
2023-05-20T07:21:16.316Z,102063.48
2023-05-20T07:23:50.519Z,102062.35
2023-05-20T07:26:18.696Z,102065.98
2023-05-20T07:28:53.387Z,102059.80
2023-05-20T07:31:30.147Z,102064.02
2023-05-20T07:33:56.175Z,102063.16
2023-05-20T07:36:18.220Z,102065.89
2023-05-20T07:38:36.367Z,102066.80
2023-05-20T07:41:01.997Z,102062.17
2023-05-20T07:43:28.226Z,102061.46
2023-05-20T07:46:06.420Z,102066.80
2023-05-20T07:48:33.072Z,102071.92
2023-05-20T07:51:07.828Z,102074.95
2023-05-20T07:53:28.548Z,102069.90
2023-05-20T07:56:05.239Z,102068.52
2023-05-20T07:58:26.765Z,102065.80
2023-05-20T08:01:02.474Z,102066.58
2023-05-20T08:03:25.330Z,102067.76
2023-05-20T08:06:09.969Z,102069.54
2023-05-20T08:08:30.158Z,102068.59
2023-05-20T08:10:52.348Z,102070.16
2023-05-20T08:13:28.172Z,102069.67
2023-05-20T08:16:05.228Z,102077.04
2023-05-20T08:18:40.899Z,102076.18
2023-05-20T08:21:17.039Z,102075.38
2023-05-20T08:23:52.275Z,102076.34
2023-05-20T08:26:27.997Z,102070.17
2023-05-20T08:29:01.893Z,102062.49
2023-05-20T08:31:22.933Z,102062.07
2023-05-20T08:33:59.695Z,102063.51
2023-05-20T08:36:22.797Z,102068.27
2023-05-20T08:38:58.374Z,102073.21
2023-05-20T08:41:23.795Z,102072.46
2023-05-20T08:44:00.898Z,102079.20
2023-05-20T08:46:39.858Z,102078.23
2023-05-20T08:49:13.809Z,102076.61
2023-05-20T08:51:48.493Z,102074.98
2023-05-20T08:54:17.986Z,102078.91
2023-05-20T08:56:47.053Z,102076.75
2023-05-20T08:59:24.010Z,102077.91
2023-05-20T09:01:59.450Z,102075.23
2023-05-20T09:04:33.399Z,102075.85
2023-05-20T09:07:00.935Z,102068.86
2023-05-20T09:09:36.887Z,102067.63
2023-05-20T09:12:13.579Z,102068.34
2023-05-20T09:14:40.325Z,102068.52
2023-05-20T09:16:59.292Z,102069.79
2023-05-20T09:19:25.573Z,102062.60
2023-05-20T09:21:58.021Z,102053.05
2023-05-20T09:24:32.268Z,102050.23
2023-05-20T09:26:58.649Z,102058.06
2023-05-20T09:29:30.587Z,102060.98
2023-05-20T09:31:59.748Z,102070.02
2023-05-20T09:34:21.124Z,102068.64
2023-05-20T09:36:42.908Z,102070.42
2023-05-20T09:39:11.576Z,102067.59
2023-05-20T09:41:56.914Z,102067.48
2023-05-20T09:44:33.745Z,102060.25
2023-05-20T09:47:10.754Z,102059.36
2023-05-20T09:49:44.993Z,102061.84
2023-05-20T09:52:15.819Z,102061.80
2023-05-20T09:54:48.169Z,102062.38
2023-05-20T09:57:22.668Z,102063.54
2023-05-20T09:59:57.104Z,102060.57
2023-05-20T10:02:21.205Z,102054.70
2023-05-20T10:04:55.321Z,102059.09
2023-05-20T10:07:56.489Z,102055.50
2023-05-20T10:10:40.581Z,102052.61
2023-05-20T10:13:39.310Z,102050.96
2023-05-20T10:16:13.185Z,102054.42
2023-05-20T10:18:51.305Z,102044.81
2023-05-20T10:21:28.982Z,102044.45
2023-05-20T10:24:13.022Z,102044.80
2023-05-20T10:26:48.523Z,102045.21
2023-05-20T10:29:25.601Z,102040.77
2023-05-20T10:31:57.055Z,102039.63
2023-05-20T10:34:26.302Z,102040.40
2023-05-20T10:37:09.584Z,102042.52
2023-05-20T10:39:43.667Z,102043.41
2023-05-20T10:42:20.072Z,102045.42
2023-05-20T10:44:54.797Z,102049.56
2023-05-20T10:47:31.138Z,102049.02
2023-05-20T10:49:59.339Z,102049.78
2023-05-20T10:52:36.131Z,102050.32
2023-05-20T10:55:06.302Z,102058.76
2023-05-20T10:57:33.775Z,102056.70
2023-05-20T11:00:02.367Z,102057.92
2023-05-20T11:02:37.846Z,102061.69
2023-05-20T11:04:56.442Z,102059.33
2023-05-20T11:07:27.858Z,102059.11
2023-05-20T11:10:02.300Z,102062.59
2023-05-20T11:12:24.630Z,102062.06
2023-05-20T11:14:55.364Z,102065.91
2023-05-20T11:17:25.646Z,102067.21
2023-05-20T11:19:57.052Z,102072.27
2023-05-20T11:22:16.392Z,102073.46
2023-05-20T11:24:43.177Z,102073.30
2023-05-20T11:27:18.738Z,102070.48
2023-05-20T11:29:57.413Z,102071.86
2023-05-20T11:32:31.916Z,102070.35
2023-05-20T11:35:07.660Z,102064.01
2023-05-20T11:37:30.846Z,102062.38
2023-05-20T11:39:52.833Z,102060.14
2023-05-20T11:42:23.601Z,102056.54
2023-05-20T11:44:49.907Z,102057.23
2023-05-20T11:47:33.628Z,102060.52
2023-05-20T11:49:55.771Z,102059.71
2023-05-20T11:52:32.021Z,102059.60
2023-05-20T11:55:09.111Z,102050.91
2023-05-20T11:57:46.377Z,102052.73
2023-05-20T12:00:19.905Z,102051.95
2023-05-20T12:02:54.911Z,102047.34
2023-05-20T12:05:28.640Z,102050.23
2023-05-20T12:08:03.160Z,102055.42
2023-05-20T12:10:40.218Z,102054.66
2023-05-20T12:13:14.587Z,102054.30
2023-05-20T12:15:48.926Z,102053.52
2023-05-20T12:18:24.593Z,102053.59
2023-05-20T12:20:46.351Z,102054.55
2023-05-20T12:23:14.923Z,102055.13
2023-05-20T12:25:42.704Z,102057.77
2023-05-20T12:28:09.317Z,102061.83
2023-05-20T12:30:45.206Z,102062.54
2023-05-20T12:33:21.792Z,102063.92
2023-05-20T12:35:48.069Z,102062.31
2023-05-20T12:38:22.249Z,102064.89
2023-05-20T12:40:56.762Z,102064.95
2023-05-20T12:43:25.719Z,102067.62
2023-05-20T12:46:01.786Z,102063.10
2023-05-20T12:48:32.501Z,102065.08
2023-05-20T12:51:07.046Z,102066.80
2023-05-20T12:53:34.577Z,102064.42
2023-05-20T12:56:08.965Z,102070.61
2023-05-20T12:58:32.826Z,102072.63
2023-05-20T13:00:56.529Z,102074.36
2023-05-20T13:03:16.356Z,102079.41
2023-05-20T13:05:52.295Z,102089.66
2023-05-20T13:08:19.828Z,102092.13
2023-05-20T13:10:39.374Z,102099.46
2023-05-20T13:13:01.594Z,102102.52
2023-05-20T13:15:27.463Z,102096.88
2023-05-20T13:17:49.763Z,102097.66
2023-05-20T13:22:53.777Z,102101.66
2023-05-20T13:25:22.935Z,102103.79
2023-05-20T13:27:57.300Z,102103.66
2023-05-20T13:30:33.847Z,102108.63
2023-05-20T13:33:04.830Z,102113.02
2023-05-20T13:35:30.910Z,102110.36
2023-05-20T13:37:50.569Z,102109.64
2023-05-20T13:40:25.533Z,102106.11
2023-05-20T13:42:47.177Z,102109.55
2023-05-20T13:45:19.098Z,102113.45
2023-05-20T13:47:52.863Z,102118.07
2023-05-20T13:50:27.920Z,102118.46
2023-05-20T13:52:55.690Z,102120.23
2023-05-20T13:55:32.929Z,102121.23
2023-05-20T13:58:00.712Z,102120.39
2023-05-20T14:00:30.216Z,102121.44
2023-05-20T14:02:58.138Z,102127.11
2023-05-20T14:05:29.737Z,102126.10
2023-05-20T14:08:05.353Z,102135.84
2023-05-20T14:10:34.659Z,102135.58
2023-05-20T14:13:04.227Z,102135.41
2023-05-20T14:15:41.174Z,102138.96
2023-05-20T14:18:14.556Z,102139.86
2023-05-20T14:20:31.044Z,102137.48
2023-05-20T14:23:03.090Z,102141.20
2023-05-20T14:25:31.100Z,102146.83
2023-05-20T14:27:58.728Z,102152.44
2023-05-20T14:30:19.624Z,102152.79
2023-05-20T14:32:56.173Z,102160.02
2023-05-20T14:35:30.230Z,102159.83
2023-05-20T14:37:51.304Z,102162.06
2023-05-20T14:40:13.367Z,102160.09
2023-05-20T14:42:48.144Z,102165.41
2023-05-20T14:45:11.003Z,102170.20
2023-05-20T14:47:37.545Z,102176.27
2023-05-20T14:50:06.461Z,102179.75
2023-05-20T14:52:36.617Z,102179.68
2023-05-20T14:55:14.962Z,102181.46
2023-05-20T14:57:41.511Z,102179.88
2023-05-20T15:00:11.227Z,102179.30
2023-05-20T15:02:35.262Z,102177.54
2023-05-20T15:04:55.994Z,102177.23
2023-05-20T15:07:29.848Z,102172.21
2023-05-20T15:09:57.936Z,102170.64
2023-05-20T15:12:32.117Z,102171.30
2023-05-20T15:15:03.745Z,102172.92
2023-05-20T15:17:38.296Z,102170.64
2023-05-20T15:20:06.352Z,102173.16
2023-05-20T15:22:42.622Z,102168.64
2023-05-20T15:25:16.762Z,102168.56
2023-05-20T15:27:39.153Z,102175.34
2023-05-20T15:29:59.519Z,102179.41
2023-05-20T15:32:29.128Z,102178.95
2023-05-20T15:34:54.994Z,102175.00
2023-05-20T15:37:30.531Z,102179.92
2023-05-20T15:39:51.065Z,102179.94
2023-05-20T15:42:26.328Z,102174.58
2023-05-20T15:44:53.239Z,102167.45
2023-05-20T15:47:27.136Z,102173.04
2023-05-20T15:50:03.342Z,102171.44
2023-05-20T15:52:38.152Z,102165.56
2023-05-20T15:55:13.991Z,102162.71
2023-05-20T15:57:53.451Z,102161.50
2023-05-20T16:00:23.991Z,102160.77
2023-05-20T16:02:52.012Z,102163.96
2023-05-20T16:05:11.545Z,102164.16
2023-05-20T16:07:47.884Z,102164.29
2023-05-20T16:10:17.379Z,102165.59
2023-05-20T16:12:48.116Z,102160.40
2023-05-20T16:15:18.275Z,102159.04
2023-05-20T16:17:46.614Z,102155.88
2023-05-20T16:20:21.264Z,102153.39
2023-05-20T16:22:55.650Z,102153.42
2023-05-20T16:25:20.914Z,102149.17
2023-05-20T16:27:43.377Z,102149.31
2023-05-20T16:30:10.664Z,102152.11
2023-05-20T16:32:46.496Z,102155.14
2023-05-20T16:35:22.901Z,102154.95
2023-05-20T16:37:58.123Z,102157.13
2023-05-20T16:40:32.428Z,102155.75
2023-05-20T16:43:08.155Z,102157.80
2023-05-20T16:45:27.744Z,102155.77
2023-05-20T16:47:53.868Z,102153.37
2023-05-20T16:50:29.870Z,102154.39
2023-05-20T16:52:57.842Z,102155.31
2023-05-20T16:55:22.615Z,102153.21
2023-05-20T16:57:58.055Z,102150.95
2023-05-20T17:00:25.700Z,102146.67
2023-05-20T17:02:58.727Z,102150.31
2023-05-20T17:05:20.795Z,102154.25
2023-05-20T17:07:42.287Z,102146.55
2023-05-20T17:10:09.412Z,102144.09
2023-05-20T17:12:45.657Z,102147.45
2023-05-20T17:15:18.858Z,102148.69
2023-05-20T17:17:42.313Z,102151.95
2023-05-20T17:20:07.830Z,102152.75
2023-05-20T17:22:42.615Z,102154.38
2023-05-20T17:25:17.022Z,102156.05
2023-05-20T17:27:38.403Z,102160.80
2023-05-20T17:30:03.828Z,102157.63
2023-05-20T17:32:24.251Z,102157.88
2023-05-20T17:34:58.336Z,102156.23
2023-05-20T17:37:33.276Z,102161.58
2023-05-20T17:40:08.890Z,102163.83
2023-05-20T17:42:26.840Z,102163.27
2023-05-20T17:45:00.849Z,102168.23
2023-05-20T17:47:29.749Z,102170.98
2023-05-20T17:49:51.253Z,102173.27
2023-05-20T17:52:16.607Z,102176.98
2023-05-20T17:54:50.706Z,102178.09
2023-05-20T17:57:18.028Z,102179.29
2023-05-20T17:59:42.754Z,102179.92
2023-05-20T18:02:10.360Z,102184.14
2023-05-20T18:04:36.065Z,102186.77
2023-05-20T18:06:53.138Z,102186.09
2023-05-20T18:09:14.771Z,102185.12
2023-05-20T18:11:48.933Z,102186.16
2023-05-20T18:14:24.100Z,102185.17
2023-05-20T18:16:43.647Z,102186.23
2023-05-20T18:19:04.558Z,102185.90
2023-05-20T18:21:31.116Z,102186.08
2023-05-20T18:24:05.372Z,102184.73
2023-05-20T18:26:40.529Z,102187.63
2023-05-20T18:29:04.829Z,102187.25
2023-05-20T18:31:31.487Z,102193.64
2023-05-20T18:33:52.787Z,102192.98
2023-05-20T18:36:26.050Z,102193.52
2023-05-20T18:38:51.950Z,102194.11
2023-05-20T18:41:35.335Z,102195.91
2023-05-20T18:44:13.741Z,102195.80
2023-05-20T18:46:36.429Z,102197.86
2023-05-20T18:49:11.467Z,102195.65
2023-05-20T18:51:47.738Z,102195.28
2023-05-20T18:54:07.796Z,102196.86
2023-05-20T18:56:29.800Z,102193.23
2023-05-20T18:58:56.281Z,102198.78
2023-05-20T19:01:20.426Z,102200.08
2023-05-20T19:03:54.583Z,102200.19
2023-05-20T19:06:23.428Z,102201.63
2023-05-20T19:08:56.913Z,102200.96
2023-05-20T19:11:15.200Z,102198.34
2023-05-20T19:13:36.114Z,102197.90
2023-05-20T19:15:55.545Z,102203.36
2023-05-20T19:18:22.611Z,102201.10
2023-05-20T19:20:51.692Z,102201.32
2023-05-20T19:23:12.126Z,102205.63
2023-05-20T19:25:40.361Z,102204.14
2023-05-20T19:28:06.503Z,102201.35
2023-05-20T19:30:28.706Z,102202.64
2023-05-20T19:33:03.187Z,102201.28
2023-05-20T19:35:38.888Z,102201.15
2023-05-20T19:37:58.054Z,102200.80
2023-05-20T19:40:33.624Z,102203.75
2023-05-20T19:42:54.519Z,102204.94
2023-05-20T19:45:16.977Z,102199.77
2023-05-20T19:47:44.280Z,102201.13
2023-05-20T19:50:13.509Z,102198.80
2023-05-20T19:52:45.496Z,102204.42
2023-05-20T19:55:11.697Z,102208.19
2023-05-20T19:57:34.842Z,102211.27
2023-05-20T19:59:56.693Z,102215.35
2023-05-20T20:02:24.597Z,102216.58
2023-05-20T20:04:49.582Z,102215.71
2023-05-20T20:07:10.605Z,102216.86
2023-05-20T20:09:43.526Z,102219.30
2023-05-20T20:12:10.412Z,102225.98
2023-05-20T20:14:31.919Z,102225.88
2023-05-20T20:16:51.629Z,102226.45
2023-05-20T20:19:12.859Z,102229.23
2023-05-20T20:21:37.417Z,102228.67
2023-05-20T20:24:02.515Z,102229.08
2023-05-20T20:26:37.179Z,102226.11
2023-05-20T20:29:01.700Z,102221.54
2023-05-20T20:31:37.195Z,102222.81
2023-05-20T20:34:13.906Z,102224.81
2023-05-20T20:36:48.860Z,102217.55
2023-05-20T20:39:10.246Z,102217.16
2023-05-20T20:41:31.126Z,102218.87
2023-05-20T20:43:51.668Z,102221.76
2023-05-20T20:46:16.239Z,102217.80
2023-05-20T20:48:50.098Z,102214.47
2023-05-20T20:51:18.084Z,102213.77
2023-05-20T20:53:44.129Z,102214.30
2023-05-20T20:56:11.398Z,102213.62
2023-05-20T20:58:36.262Z,102212.52
2023-05-20T21:00:55.837Z,102210.11
2023-05-20T21:03:47.070Z,102210.84
2023-05-20T21:06:14.127Z,102207.47
2023-05-20T21:08:49.219Z,102207.52
2023-05-20T21:11:07.915Z,102202.58
2023-05-20T21:13:41.542Z,102202.95
2023-05-20T21:16:13.131Z,102198.33
2023-05-20T21:18:47.987Z,102201.95
2023-05-20T21:21:23.909Z,102201.48
2023-05-20T21:23:45.861Z,102201.38
2023-05-20T21:26:11.768Z,102203.11
2023-05-20T21:28:35.010Z,102200.14
2023-05-20T21:30:56.450Z,102203.33
2023-05-20T21:33:26.455Z,102202.64
2023-05-20T21:35:51.147Z,102200.68
2023-05-20T21:38:09.191Z,102193.51
2023-05-20T21:40:30.383Z,102195.05
2023-05-20T21:42:58.748Z,102191.20
2023-05-20T21:45:25.186Z,102193.19
2023-05-20T21:47:54.236Z,102196.38
2023-05-20T21:50:22.379Z,102199.61
2023-05-20T21:52:48.932Z,102203.14
2023-05-20T21:55:08.985Z,102198.09
2023-05-20T21:57:33.472Z,102198.38
2023-05-20T22:00:00.936Z,102193.80
2023-05-20T22:02:18.752Z,102196.30
2023-05-20T22:04:52.870Z,102192.52
2023-05-20T22:07:22.013Z,102186.33
2023-05-20T22:09:53.725Z,102185.73
2023-05-20T22:12:21.729Z,102183.98
2023-05-20T22:14:55.949Z,102178.70
2023-05-20T22:17:16.097Z,102181.40
2023-05-20T22:19:38.922Z,102184.35
2023-05-20T22:22:05.306Z,102183.13
2023-05-20T22:24:39.529Z,102181.92
2023-05-20T22:27:15.751Z,102177.47
2023-05-20T22:29:50.450Z,102176.52
2023-05-20T22:32:15.380Z,102178.27
2023-05-20T22:34:35.463Z,102177.64
2023-05-20T22:36:59.226Z,102175.51
2023-05-20T22:39:22.984Z,102172.02
2023-05-20T22:41:56.523Z,102174.79
2023-05-20T22:44:30.629Z,102169.29
2023-05-20T22:46:50.488Z,102168.80
2023-05-20T22:49:14.279Z,102164.31
2023-05-20T22:51:42.812Z,102166.60
2023-05-20T22:54:18.761Z,102167.99
2023-05-20T22:56:55.681Z,102162.84
2023-05-20T22:59:32.256Z,102158.21
2023-05-20T23:02:07.952Z,102153.89
2023-05-20T23:04:34.151Z,102149.74
2023-05-20T23:07:01.310Z,102147.47
2023-05-20T23:09:20.965Z,102144.56
2023-05-20T23:11:48.809Z,102143.02
2023-05-20T23:14:22.852Z,102135.84
2023-05-20T23:16:45.674Z,102137.40
2023-05-20T23:19:13.395Z,102137.77
2023-05-20T23:21:47.898Z,102135.27
2023-05-20T23:24:09.213Z,102133.41
2023-05-20T23:26:42.120Z,102128.15
2023-05-20T23:29:13.660Z,102122.34
2023-05-20T23:31:50.751Z,102119.46
2023-05-20T23:34:18.361Z,102116.95
2023-05-20T23:36:43.077Z,102121.09
2023-05-20T23:39:01.219Z,102123.07
2023-05-20T23:41:25.661Z,102121.10
2023-05-20T23:43:52.864Z,102125.25
2023-05-20T23:46:28.250Z,102123.81
2023-05-20T23:49:01.493Z,102123.43
2023-05-20T23:51:22.720Z,102130.91
2023-05-20T23:53:58.719Z,102125.59
2023-05-20T23:56:28.068Z,102125.64
2023-05-20T23:59:02.343Z,102125.77
